createdAt,value
2022-11-09T00:01:42.061Z,50.56
2022-11-09T00:04:08.981Z,50.54
2022-11-09T00:06:36.037Z,50.41
2022-11-09T00:09:07.700Z,50.30
2022-11-09T00:11:36.101Z,50.48
2022-11-09T00:14:02.608Z,50.39
2022-11-09T00:16:29.159Z,50.54
2022-11-09T00:18:56.048Z,50.37
2022-11-09T00:21:25.058Z,50.41
2022-11-09T00:23:52.253Z,50.38
2022-11-09T00:26:20.052Z,50.29
2022-11-09T00:28:47.077Z,50.28
2022-11-09T00:31:17.417Z,50.33
2022-11-09T00:33:47.217Z,50.41
2022-11-09T00:36:13.938Z,50.36
2022-11-09T00:38:40.892Z,50.33
2022-11-09T00:41:09.670Z,50.41
2022-11-09T00:43:36.858Z,50.37
2022-11-09T00:46:03.759Z,50.30
2022-11-09T00:48:30.714Z,50.29
2022-11-09T00:50:58.103Z,50.36
2022-11-09T00:53:26.188Z,50.36
2022-11-09T00:56:02.765Z,50.33
2022-11-09T00:58:31.617Z,50.38
2022-11-09T01:00:59.711Z,50.35
2022-11-09T01:03:27.116Z,50.34
2022-11-09T01:05:53.621Z,50.24
2022-11-09T01:08:20.295Z,50.22
2022-11-09T01:10:48.725Z,50.26
2022-11-09T01:13:17.797Z,50.36
2022-11-09T01:15:47.322Z,50.33
2022-11-09T01:18:15.159Z,50.20
2022-11-09T01:20:46.801Z,50.21
2022-11-09T01:23:14.746Z,50.29
2022-11-09T01:25:41.716Z,50.39
2022-11-09T01:28:09.561Z,50.31
2022-11-09T01:30:39.388Z,50.30
2022-11-09T01:33:11.566Z,50.25
2022-11-09T01:35:39.961Z,50.20
2022-11-09T01:38:08.031Z,50.23
2022-11-09T01:40:37.348Z,50.28
2022-11-09T01:43:24.824Z,50.25
2022-11-09T01:46:09.347Z,50.20
2022-11-09T01:48:46.067Z,50.20
2022-11-09T01:51:41.673Z,50.29
2022-11-09T01:54:19.481Z,50.17
2022-11-09T01:56:48.449Z,50.23
2022-11-09T01:59:20.567Z,50.15
2022-11-09T02:01:47.390Z,50.21
2022-11-09T02:04:20.810Z,50.27
2022-11-09T02:06:48.320Z,50.33
2022-11-09T02:09:26.695Z,50.17
2022-11-09T02:11:53.536Z,50.28
2022-11-09T02:14:23.945Z,50.27
2022-11-09T02:16:50.496Z,50.22
2022-11-09T02:19:17.006Z,50.32
2022-11-09T02:21:43.674Z,50.22
2022-11-09T02:24:10.440Z,50.22
2022-11-09T02:26:48.923Z,50.24
2022-11-09T02:29:26.524Z,50.26
2022-11-09T02:31:59.355Z,50.29
2022-11-09T02:34:25.923Z,50.29
2022-11-09T02:36:52.784Z,50.24
2022-11-09T02:39:25.521Z,50.29
2022-11-09T02:42:13.040Z,50.32
2022-11-09T02:44:47.853Z,50.20
2022-11-09T02:47:14.825Z,50.21
2022-11-09T02:49:41.357Z,50.18
2022-11-09T02:52:07.909Z,50.16
2022-11-09T02:54:34.411Z,50.29
2022-11-09T02:57:00.926Z,50.24
2022-11-09T02:59:27.422Z,50.22
2022-11-09T03:01:53.918Z,50.20
2022-11-09T03:04:20.459Z,50.17
2022-11-09T03:06:46.941Z,50.15
2022-11-09T03:09:13.532Z,50.21
2022-11-09T03:11:41.860Z,50.19
2022-11-09T03:14:09.854Z,50.34
2022-11-09T03:16:37.621Z,50.20
2022-11-09T03:19:04.493Z,50.02
2022-11-09T03:21:30.977Z,50.24
2022-11-09T03:23:57.587Z,50.23
2022-11-09T03:26:24.282Z,50.08
2022-11-09T03:28:50.745Z,50.20
2022-11-09T03:31:17.533Z,50.09
2022-11-09T03:33:43.994Z,50.16
2022-11-09T03:36:10.560Z,50.12
2022-11-09T03:38:37.037Z,50.04
2022-11-09T03:41:03.881Z,50.16
2022-11-09T03:43:30.804Z,50.17
2022-11-09T03:45:57.623Z,50.07
2022-11-09T03:48:24.089Z,50.21
2022-11-09T03:50:51.109Z,50.05
2022-11-09T03:53:17.743Z,50.05
2022-11-09T03:55:44.574Z,50.24
2022-11-09T03:58:13.254Z,50.12
2022-11-09T04:00:40.180Z,50.11
2022-11-09T04:03:06.664Z,50.09
2022-11-09T04:05:33.305Z,50.00
2022-11-09T04:07:59.777Z,50.06
2022-11-09T04:10:27.135Z,50.07
2022-11-09T04:12:53.902Z,50.02
2022-11-09T04:15:20.536Z,49.96
2022-11-09T04:17:57.751Z,50.01
2022-11-09T04:20:25.557Z,50.01
2022-11-09T04:22:59.972Z,50.03
2022-11-09T04:25:29.018Z,50.14
2022-11-09T04:27:59.463Z,50.10
2022-11-09T04:30:30.319Z,49.97
2022-11-09T04:32:58.091Z,50.11
2022-11-09T04:35:25.869Z,50.14
2022-11-09T04:37:58.214Z,50.08
2022-11-09T04:40:26.408Z,50.10
2022-11-09T04:42:53.320Z,50.20
2022-11-09T04:45:20.752Z,50.14
2022-11-09T04:47:47.467Z,50.11
2022-11-09T04:50:14.179Z,50.26
2022-11-09T04:52:40.813Z,50.18
2022-11-09T04:55:08.050Z,50.06
2022-11-09T04:57:34.540Z,50.20
2022-11-09T05:00:00.977Z,50.21
2022-11-09T05:02:27.513Z,50.15
2022-11-09T05:04:53.943Z,50.29
2022-11-09T05:07:20.607Z,50.20
2022-11-09T05:09:47.057Z,50.21
2022-11-09T05:12:13.632Z,50.00
2022-11-09T05:14:40.077Z,50.25
2022-11-09T05:17:08.745Z,50.13
2022-11-09T05:19:35.378Z,50.21
2022-11-09T05:22:21.798Z,50.25
2022-11-09T05:24:48.450Z,50.12
2022-11-09T05:27:14.903Z,50.28
2022-11-09T05:29:41.324Z,50.20
2022-11-09T05:32:07.855Z,50.21
2022-11-09T05:34:34.308Z,50.09
2022-11-09T05:37:03.469Z,50.25
2022-11-09T05:39:30.215Z,50.21
2022-11-09T05:41:56.706Z,50.28
2022-11-09T05:44:23.253Z,50.21
2022-11-09T05:46:49.678Z,50.18
2022-11-09T05:49:16.112Z,50.17
2022-11-09T05:51:42.543Z,50.29
2022-11-09T05:54:09.005Z,50.20
2022-11-09T05:56:35.510Z,50.19
2022-11-09T05:59:01.986Z,50.35
2022-11-09T06:01:28.419Z,50.33
2022-11-09T06:03:54.882Z,50.14
2022-11-09T06:06:21.414Z,50.22
2022-11-09T06:08:47.997Z,50.04
2022-11-09T06:11:21.539Z,50.22
2022-11-09T06:13:50.372Z,50.20
2022-11-09T06:16:16.885Z,50.16
2022-11-09T06:18:43.515Z,50.38
2022-11-09T06:21:10.417Z,50.09
2022-11-09T06:23:36.992Z,50.16
2022-11-09T06:26:09.895Z,50.20
2022-11-09T06:28:37.998Z,50.32
2022-11-09T06:31:06.654Z,50.19
2022-11-09T06:33:35.013Z,50.16
2022-11-09T06:36:02.589Z,50.28
2022-11-09T06:38:29.205Z,50.15
2022-11-09T06:40:57.202Z,50.23
2022-11-09T06:43:24.670Z,50.32
2022-11-09T06:45:52.128Z,50.12
2022-11-09T06:48:18.838Z,50.21
2022-11-09T06:50:45.741Z,50.31
2022-11-09T06:53:15.048Z,50.30
2022-11-09T06:55:47.170Z,50.24
2022-11-09T06:58:15.980Z,50.31
2022-11-09T07:00:44.001Z,50.23
2022-11-09T07:03:15.089Z,50.17
2022-11-09T07:05:41.615Z,50.18
2022-11-09T07:08:08.137Z,50.20
2022-11-09T07:10:34.628Z,50.34
2022-11-09T07:13:03.194Z,50.23
2022-11-09T07:15:29.705Z,50.31
2022-11-09T07:18:01.104Z,50.23
2022-11-09T07:20:28.338Z,50.25
2022-11-09T07:22:55.068Z,50.29
2022-11-09T07:25:22.274Z,50.38
2022-11-09T07:27:48.802Z,50.20
2022-11-09T07:30:15.542Z,50.25
2022-11-09T07:35:29.944Z,50.24
2022-11-09T07:38:01.504Z,50.23
2022-11-09T07:40:28.292Z,50.17
2022-11-09T07:42:58.390Z,50.27
2022-11-09T07:45:25.903Z,50.25
2022-11-09T07:47:59.443Z,50.34
2022-11-09T07:50:27.213Z,50.30
2022-11-09T07:52:56.415Z,50.33
2022-11-09T07:55:24.019Z,50.38
2022-11-09T07:57:55.755Z,50.29
2022-11-09T08:00:23.804Z,50.39
2022-11-09T08:02:50.559Z,50.37
2022-11-09T08:05:18.156Z,50.29
2022-11-09T08:07:44.759Z,50.36
2022-11-09T08:10:11.226Z,50.42
2022-11-09T08:12:37.725Z,50.36
2022-11-09T08:15:06.050Z,50.43
2022-11-09T08:17:32.745Z,50.43
2022-11-09T08:19:59.235Z,50.42
2022-11-09T08:22:25.692Z,50.31
2022-11-09T08:24:52.282Z,50.41
2022-11-09T08:27:18.777Z,50.33
2022-11-09T08:29:45.432Z,50.41
2022-11-09T08:32:12.239Z,50.38
2022-11-09T08:34:38.662Z,50.39
2022-11-09T08:37:05.436Z,50.43
2022-11-09T08:39:32.053Z,50.42
2022-11-09T08:41:58.661Z,50.54
2022-11-09T08:44:25.220Z,50.49
2022-11-09T08:46:51.673Z,50.41
2022-11-09T08:49:18.148Z,50.49
2022-11-09T08:51:44.705Z,50.54
2022-11-09T08:54:13.444Z,50.59
2022-11-09T08:56:40.143Z,50.55
2022-11-09T08:59:06.653Z,50.51
2022-11-09T09:01:33.136Z,50.41
2022-11-09T09:03:59.610Z,50.49
2022-11-09T09:06:30.847Z,50.63
2022-11-09T09:08:59.077Z,50.53
2022-11-09T09:11:25.567Z,50.60
2022-11-09T09:13:52.010Z,50.65
2022-11-09T09:16:18.633Z,50.54
2022-11-09T09:18:47.962Z,50.48
2022-11-09T09:21:14.581Z,50.71
2022-11-09T09:23:41.056Z,50.53
2022-11-09T09:26:07.597Z,50.59
2022-11-09T09:28:34.924Z,50.61
2022-11-09T09:31:01.771Z,50.37
2022-11-09T09:33:28.994Z,50.52
2022-11-09T09:35:57.539Z,50.53
2022-11-09T09:38:25.239Z,50.63
2022-11-09T09:41:04.196Z,50.37
2022-11-09T09:43:44.174Z,50.44
2022-11-09T09:46:18.101Z,50.57
2022-11-09T09:48:53.535Z,50.44
2022-11-09T09:51:30.582Z,50.45
2022-11-09T09:54:03.674Z,50.55
2022-11-09T09:56:40.365Z,50.47
2022-11-09T09:59:33.176Z,50.45
2022-11-09T10:01:59.673Z,50.58
2022-11-09T10:04:32.176Z,50.73
2022-11-09T10:07:18.845Z,50.44
2022-11-09T10:10:21.762Z,50.61
2022-11-09T10:13:01.150Z,50.61
2022-11-09T10:15:41.309Z,50.64
2022-11-09T10:18:13.713Z,50.63
2022-11-09T10:20:49.217Z,50.54
2022-11-09T10:23:22.048Z,50.60
2022-11-09T10:26:15.442Z,50.63
2022-11-09T10:29:09.615Z,50.60
2022-11-09T10:31:41.093Z,50.67
2022-11-09T10:34:25.185Z,50.67
2022-11-09T10:37:12.918Z,50.55
2022-11-09T10:39:44.354Z,50.54
2022-11-09T10:42:12.262Z,50.65
2022-11-09T10:44:38.751Z,50.49
2022-11-09T10:47:09.053Z,50.40
2022-11-09T10:49:36.751Z,50.49
2022-11-09T10:52:05.121Z,50.51
2022-11-09T10:54:34.878Z,50.51
2022-11-09T10:57:07.137Z,50.45
2022-11-09T10:59:52.074Z,50.48
2022-11-09T11:02:24.514Z,50.53
2022-11-09T11:05:06.662Z,50.44
2022-11-09T11:07:35.289Z,50.58
2022-11-09T11:10:16.927Z,50.52
2022-11-09T11:12:51.519Z,50.58
2022-11-09T11:15:35.558Z,50.62
2022-11-09T11:18:12.888Z,50.54
2022-11-09T11:20:39.585Z,50.59
2022-11-09T11:23:26.640Z,50.62
2022-11-09T11:25:53.277Z,50.47
2022-11-09T11:28:34.728Z,50.41
2022-11-09T11:31:02.000Z,50.50
2022-11-09T11:33:29.770Z,50.48
2022-11-09T11:36:04.289Z,50.49
2022-11-09T11:38:49.334Z,50.60
2022-11-09T11:41:49.718Z,50.51
2022-11-09T11:44:30.367Z,50.52
2022-11-09T11:47:20.602Z,50.54
2022-11-09T11:50:21.865Z,50.51
2022-11-09T11:53:31.562Z,50.50
2022-11-09T11:56:01.091Z,50.38
2022-11-09T11:58:42.837Z,50.45
2022-11-09T12:01:27.739Z,50.51
2022-11-09T12:04:21.110Z,50.59
2022-11-09T12:07:02.584Z,50.41
2022-11-09T12:09:31.776Z,50.53
2022-11-09T12:12:16.806Z,50.53
2022-11-09T12:14:57.804Z,50.55
2022-11-09T12:17:37.950Z,50.45
2022-11-09T12:20:21.760Z,50.50
2022-11-09T12:23:00.022Z,50.56
2022-11-09T12:25:35.992Z,50.60
2022-11-09T12:28:17.628Z,50.56
2022-11-09T12:31:09.938Z,50.36
2022-11-09T12:33:55.279Z,50.47
2022-11-09T12:36:33.960Z,50.56
2022-11-09T12:39:07.491Z,50.53
2022-11-09T12:41:37.457Z,50.54
2022-11-09T12:44:11.987Z,50.55
2022-11-09T12:46:50.262Z,50.50
2022-11-09T12:49:34.715Z,50.56
2022-11-09T12:52:01.471Z,50.67
2022-11-09T12:54:28.545Z,50.52
2022-11-09T12:57:01.321Z,50.58
2022-11-09T12:59:27.712Z,50.41
2022-11-09T13:01:57.250Z,50.57
2022-11-09T13:04:25.778Z,50.44
2022-11-09T13:07:07.669Z,50.50
2022-11-09T13:09:44.324Z,50.59
2022-11-09T13:12:26.752Z,50.51
2022-11-09T13:14:53.620Z,50.48
2022-11-09T13:17:25.816Z,50.53
2022-11-09T13:19:55.214Z,50.46
2022-11-09T13:22:22.919Z,50.59
2022-11-09T13:24:54.078Z,50.48
2022-11-09T13:27:32.835Z,50.50
2022-11-09T13:30:03.033Z,50.51
2022-11-09T13:32:33.607Z,50.41
2022-11-09T13:35:04.586Z,50.37
2022-11-09T13:37:44.813Z,50.40
2022-11-09T13:40:33.179Z,50.43
2022-11-09T13:43:08.801Z,50.37
2022-11-09T13:45:37.453Z,50.39
2022-11-09T13:48:06.624Z,50.40
2022-11-09T13:50:34.835Z,50.37
2022-11-09T13:53:02.746Z,50.29
2022-11-09T13:55:40.771Z,50.25
2022-11-09T13:58:38.794Z,50.22
2022-11-09T14:01:05.255Z,50.24
2022-11-09T14:03:33.300Z,50.09
2022-11-09T14:06:02.553Z,50.27
2022-11-09T14:08:40.237Z,50.34
2022-11-09T14:11:32.302Z,50.29
2022-11-09T14:14:13.931Z,50.13
2022-11-09T14:16:52.685Z,50.20
2022-11-09T14:19:44.572Z,50.26
2022-11-09T14:22:16.538Z,50.31
2022-11-09T14:24:44.066Z,50.30
2022-11-09T14:27:10.461Z,50.20
2022-11-09T14:29:47.162Z,50.46
2022-11-09T14:32:22.755Z,50.08
2022-11-09T14:34:49.387Z,50.17
2022-11-09T14:37:16.697Z,50.12
2022-11-09T14:39:49.191Z,50.16
2022-11-09T14:42:21.488Z,50.01
2022-11-09T14:44:49.085Z,50.19
2022-11-09T14:47:26.273Z,50.22
2022-11-09T14:49:53.244Z,50.15
2022-11-09T14:52:27.640Z,50.11
2022-11-09T14:54:54.632Z,50.05
2022-11-09T14:57:23.261Z,49.94
2022-11-09T14:59:50.975Z,50.03
2022-11-09T15:02:19.924Z,50.04
2022-11-09T15:04:53.615Z,50.16
2022-11-09T15:07:23.043Z,49.88
2022-11-09T15:10:00.758Z,49.99
2022-11-09T15:12:29.676Z,49.95
2022-11-09T15:15:02.197Z,49.97
2022-11-09T15:17:37.199Z,49.91
2022-11-09T15:20:06.355Z,49.79
2022-11-09T15:22:51.158Z,49.94
2022-11-09T15:25:29.213Z,49.80
2022-11-09T15:28:19.013Z,49.90
2022-11-09T15:31:12.642Z,49.82
2022-11-09T15:33:49.953Z,49.83
2022-11-09T15:36:25.423Z,49.81
2022-11-09T15:39:02.575Z,49.74
2022-11-09T15:41:30.469Z,49.87
2022-11-09T15:43:58.330Z,49.84
2022-11-09T15:46:28.194Z,49.64
2022-11-09T15:48:59.083Z,49.75
2022-11-09T15:51:25.645Z,49.79
2022-11-09T15:53:52.142Z,49.77
2022-11-09T15:56:21.143Z,49.86
2022-11-09T15:58:49.349Z,49.70
2022-11-09T16:01:16.407Z,49.77
2022-11-09T16:03:42.998Z,49.63
2022-11-09T16:06:15.169Z,49.81
2022-11-09T16:08:41.732Z,49.66
2022-11-09T16:11:10.265Z,49.74
2022-11-09T16:13:36.735Z,49.70
2022-11-09T16:16:08.064Z,49.67
2022-11-09T16:18:34.901Z,49.72
2022-11-09T16:21:13.170Z,49.69
2022-11-09T16:23:39.664Z,49.73
2022-11-09T16:26:24.369Z,49.79
2022-11-09T16:28:50.906Z,49.56
2022-11-09T16:31:25.271Z,49.69
2022-11-09T16:34:01.629Z,49.63
2022-11-09T16:36:28.984Z,49.73
2022-11-09T16:38:56.625Z,49.65
2022-11-09T16:41:24.239Z,49.58
2022-11-09T16:43:55.051Z,49.45
2022-11-09T16:46:26.477Z,49.58
2022-11-09T16:48:53.962Z,49.68
2022-11-09T16:51:21.528Z,49.56
2022-11-09T16:53:47.976Z,49.65
2022-11-09T16:56:14.574Z,49.75
2022-11-09T16:58:41.059Z,49.69
2022-11-09T17:01:12.393Z,49.58
2022-11-09T17:03:39.128Z,49.70
2022-11-09T17:06:10.803Z,49.67
2022-11-09T17:08:41.495Z,49.52
2022-11-09T17:11:12.566Z,49.71
2022-11-09T17:13:39.351Z,49.62
2022-11-09T17:16:09.770Z,49.67
2022-11-09T17:18:37.838Z,49.72
2022-11-09T17:21:09.815Z,49.58
2022-11-09T17:23:36.431Z,49.56
2022-11-09T17:26:05.136Z,49.67
2022-11-09T17:28:32.598Z,49.53
2022-11-09T17:30:59.125Z,49.64
2022-11-09T17:33:25.604Z,49.49
2022-11-09T17:36:03.909Z,49.52
2022-11-09T17:38:31.045Z,49.51
2022-11-09T17:41:08.846Z,49.53
2022-11-09T17:43:37.464Z,49.52
2022-11-09T17:46:04.935Z,49.51
2022-11-09T17:48:33.227Z,49.63
2022-11-09T17:51:00.264Z,49.53
2022-11-09T17:53:26.982Z,49.56
2022-11-09T17:55:53.543Z,49.62
2022-11-09T17:58:20.325Z,49.37
2022-11-09T18:00:46.997Z,49.43
2022-11-09T18:03:13.575Z,49.47
2022-11-09T18:05:42.106Z,49.51
2022-11-09T18:08:09.956Z,49.67
2022-11-09T18:10:42.529Z,49.66
2022-11-09T18:13:09.781Z,49.62
2022-11-09T18:15:37.599Z,49.49
2022-11-09T18:18:04.741Z,49.54
2022-11-09T18:20:31.268Z,49.48
2022-11-09T18:22:57.761Z,49.64
2022-11-09T18:25:24.702Z,49.48
2022-11-09T18:27:52.559Z,49.49
2022-11-09T18:30:19.356Z,49.53
2022-11-09T18:32:45.832Z,49.47
2022-11-09T18:35:12.311Z,49.54
2022-11-09T18:37:39.216Z,49.40
2022-11-09T18:40:07.226Z,49.68
2022-11-09T18:42:33.749Z,49.52
2022-11-09T18:45:00.241Z,49.54
2022-11-09T18:47:26.841Z,49.58
2022-11-09T18:49:53.348Z,49.54
2022-11-09T18:52:19.901Z,49.54
2022-11-09T18:54:46.507Z,49.67
2022-11-09T18:57:16.006Z,49.71
2022-11-09T18:59:45.280Z,49.64
2022-11-09T19:02:13.595Z,49.50
2022-11-09T19:04:40.355Z,49.52
2022-11-09T19:07:06.934Z,49.58
2022-11-09T19:09:38.612Z,49.60
2022-11-09T19:12:08.416Z,49.64
2022-11-09T19:14:44.028Z,49.53
2022-11-09T19:17:13.755Z,49.62
2022-11-09T19:19:42.221Z,49.61
2022-11-09T19:22:16.956Z,49.44
2022-11-09T19:24:44.067Z,49.58
2022-11-09T19:27:10.561Z,49.57
2022-11-09T19:29:37.172Z,49.58
2022-11-09T19:32:04.129Z,49.52
2022-11-09T19:34:30.789Z,49.63
2022-11-09T19:36:57.276Z,49.63
2022-11-09T19:39:23.877Z,49.72
2022-11-09T19:41:50.355Z,49.56
2022-11-09T19:44:18.111Z,49.65
2022-11-09T19:46:44.908Z,49.63
2022-11-09T19:49:11.830Z,49.72
2022-11-09T19:51:39.272Z,49.68
2022-11-09T19:54:06.294Z,49.53
2022-11-09T19:56:33.480Z,49.55
2022-11-09T19:59:02.341Z,49.65
2022-11-09T20:01:30.311Z,49.74
2022-11-09T20:03:59.257Z,49.46
2022-11-09T20:06:26.753Z,49.74
2022-11-09T20:08:54.104Z,49.71
2022-11-09T20:11:41.428Z,49.61
2022-11-09T20:14:09.321Z,49.69
2022-11-09T20:16:37.388Z,49.61
2022-11-09T20:19:05.377Z,49.66
2022-11-09T20:21:32.191Z,49.75
2022-11-09T20:23:58.735Z,49.67
2022-11-09T20:26:25.229Z,49.62
2022-11-09T20:28:53.469Z,49.75
2022-11-09T20:31:20.890Z,49.58
2022-11-09T20:33:47.446Z,49.58
2022-11-09T20:36:14.436Z,49.67
2022-11-09T20:38:42.311Z,49.75
2022-11-09T20:41:11.439Z,49.72
2022-11-09T20:43:38.594Z,49.66
2022-11-09T20:46:14.688Z,49.81
2022-11-09T20:48:57.326Z,49.56
2022-11-09T20:51:24.547Z,49.69
2022-11-09T20:53:51.568Z,49.59
2022-11-09T20:56:19.536Z,49.74
2022-11-09T20:58:46.232Z,49.84
2022-11-09T21:01:17.469Z,49.67
2022-11-09T21:03:44.979Z,49.77
2022-11-09T21:06:12.562Z,49.66
2022-11-09T21:08:39.753Z,49.62
2022-11-09T21:11:08.061Z,49.99
2022-11-09T21:13:34.877Z,49.65
2022-11-09T21:16:06.221Z,49.69
2022-11-09T21:18:32.982Z,49.75
2022-11-09T21:21:11.742Z,49.63
2022-11-09T21:23:57.584Z,49.59
2022-11-09T21:26:42.934Z,49.65
2022-11-09T21:29:29.772Z,49.69
2022-11-09T21:31:56.360Z,49.62
2022-11-09T21:34:22.930Z,49.60
2022-11-09T21:36:49.444Z,49.59
2022-11-09T21:39:16.140Z,49.74
2022-11-09T21:41:43.111Z,49.69
2022-11-09T21:44:11.811Z,49.69
2022-11-09T21:46:40.649Z,49.61
2022-11-09T21:49:08.831Z,49.76
2022-11-09T21:51:37.024Z,49.71
2022-11-09T21:54:04.823Z,49.67
2022-11-09T21:56:31.812Z,49.87
2022-11-09T21:58:58.437Z,49.78
2022-11-09T22:01:25.279Z,49.70
2022-11-09T22:03:52.385Z,49.89
2022-11-09T22:06:19.709Z,49.82
2022-11-09T22:08:47.354Z,49.89
2022-11-09T22:11:17.534Z,49.89
2022-11-09T22:14:02.828Z,49.82
2022-11-09T22:16:33.410Z,49.75
2022-11-09T22:19:21.485Z,49.72
2022-11-09T22:21:47.991Z,49.69
2022-11-09T22:24:14.551Z,49.71
2022-11-09T22:26:41.028Z,49.89
2022-11-09T22:29:07.526Z,49.70
2022-11-09T22:31:33.993Z,49.78
2022-11-09T22:34:00.464Z,49.72
2022-11-09T22:36:26.937Z,49.85
2022-11-09T22:38:53.456Z,49.50
2022-11-09T22:41:19.934Z,49.65
2022-11-09T22:43:46.386Z,49.75
2022-11-09T22:46:15.326Z,50.01
2022-11-09T22:48:43.412Z,49.74
2022-11-09T22:51:12.611Z,49.83
2022-11-09T22:53:39.356Z,49.69
2022-11-09T22:56:06.407Z,49.77
2022-11-09T22:58:33.138Z,49.77
2022-11-09T23:01:12.241Z,49.68
2022-11-09T23:03:39.365Z,49.85
2022-11-09T23:06:12.142Z,49.75
2022-11-09T23:08:38.722Z,49.81
2022-11-09T23:11:06.691Z,49.71
2022-11-09T23:13:34.152Z,49.81
2022-11-09T23:16:03.712Z,49.78
2022-11-09T23:18:48.978Z,49.84
2022-11-09T23:21:15.852Z,49.78
2022-11-09T23:23:42.594Z,49.82
2022-11-09T23:26:10.302Z,49.86
2022-11-09T23:28:37.735Z,49.81
2022-11-09T23:31:08.783Z,49.75
2022-11-09T23:33:35.914Z,49.78
2022-11-09T23:36:05.053Z,49.74
2022-11-09T23:38:36.916Z,49.82
2022-11-09T23:41:05.134Z,49.83
2022-11-09T23:43:31.632Z,49.76
2022-11-09T23:46:03.334Z,49.80
2022-11-09T23:48:29.841Z,49.74
2022-11-09T23:51:00.611Z,49.73
2022-11-09T23:53:29.113Z,49.85
2022-11-09T23:56:09.724Z,49.75
2022-11-09T23:58:37.094Z,49.85
